Αναφορές METAR από Ελληνικά Αεροδρόμια

Σε αυτή τη σελίδα, μπορείτε να παρακολουθείτε τις αναφορές METAR που προέρχονται από τα κυριότερα αεροδρόμια της Ελλάδας. Το περιεχόμενο αποκωδικοποιείται, οπτικοποιείται και γίνεται κατανοητό από τον καθένα με τη χρήση του όμορφου δίγλωσσου γραφικού περιβάλλοντος του meteothes.gr!

Η αρχική κωδικοποιημένη αναφορά, συμπεριλαμβάνεται επίσης στο κάτω μέρος. Σε όποια καθεστερεί η ενημέρωση, το προειδοποιητικό μήνυμα "Μη ενημερωμένο METAR!" εμφανίζεται στο πάνω μέρος της με κόκκινα γράμματα.

Εχουν προστεθεί επίσης δύο αεροδρόμια από γειτονικές χώρες, την Οχρίδα(ΠΓΔΜ) και την Σόφια(Βουλγαρία) για να ελέγχουμε την εξέλιξη των ψυχρών εισβολών από τα Βόρεια!

LGTS - Thessaloniki/Makedonia-Elev 7m
Distance from station: Ν 13km
Ενημερώθηκε: 18/04/2024 17:20
Μερικώς νεφελώδης
Μερικώς νεφελώδης
 Ανεμος από ΒΔ
Ανεμος: ΒΔ 22 km/h
Θερμοκρασία: 20°C
Σημ. Δρόσου: 5°C
Υγρασία: 38%
Βαρόμετρο: 1006 hPa
Νέφωση: Μερικώς νεφελώδης
Ορατότητα: 10 km
Λεπτομέρειες Νεφών: Διάσπαρτα Nέφη 488 m
Μερικώς νεφελώδης 762 m
2024/04/18 14:20 LGTS 181420Z 32012KT 9999 FEW016 SCT025 20/05 Q1006 NOSIG
LGAV - Athens/Elef. Venizelos-Elev 94m
Distance from station: ΝΝΑ 312km
Ενημερώθηκε: 18/04/2024 17:20
Διάσπαρτα Nέφη
Διάσπαρτα Nέφη
 Ανεμος από ΝΔ
Ανεμος: ΝΔ 22 km/h
Θερμοκρασία: 23°C
Σημ. Δρόσου: 6°C
Υγρασία: 33%
Βαρόμετρο: 1006 hPa
Νέφωση: Διάσπαρτα Nέφη
Ορατότητα: 10 km
Λεπτομέρειες Νεφών: Διάσπαρτα Nέφη 914 m
2024/04/18 14:20 LGAV 181420Z 22012KT 9999 FEW030 23/06 Q1006 NOSIG
 
LGAL - Alexandroupolis-Elev 3m
Distance from station: Α 251km
Ενημερώθηκε: 18/04/2024 17:20
Διάσπαρτα Nέφη
Διάσπαρτα Nέφη
 Ανεμος από ΝΔ
Ανεμος: ΝΔ 22 km/h
Θερμοκρασία: 20°C
Σημ. Δρόσου: 10°C
Υγρασία: 53%
Βαρόμετρο: 1005 hPa
Νέφωση: Διάσπαρτα Nέφη
Ορατότητα: 10 km
Λεπτομέρειες Νεφών: Διάσπαρτα Nέφη 762 m
2024/04/18 14:20 LGAL 181420Z 22012KT 9999 FEW025 20/10 Q1005
LGKV - Kavala/Crysoupolis-Elev 5m
Distance from station: ΑΒΑ 144km
Ενημερώθηκε: 18/04/2024 17:20
Μερικώς νεφελώδης
Μερικώς νεφελώδης
 Ανεμος από ΔΝΔ
Ανεμος: ΔΝΔ 24 km/h, Ριπή: 43 km/h
Θερμοκρασία: 20°C
Σημ. Δρόσου: 3°C
Υγρασία: 33%
Βαρόμετρο: 1004 hPa
Νέφωση: Μερικώς νεφελώδης
Ορατότητα: 10 km
Λεπτομέρειες Νεφών: Διάσπαρτα Nέφη 914 m
Μερικώς νεφελώδης 2438 m
2024/04/18 14:20 LGKV 181420Z 25013G23KT 9999 FEW030 SCT080 20/03 Q1004
 
LGSK - Skiathos Island-Elev 15m
Distance from station: ΝΝΑ 168km
Ενημερώθηκε: 18/04/2024 17:20
Μερικώς νεφελώδης
Μερικώς νεφελώδης
 Ανεμος από Β
Ανεμος: Β 15 km/h
Θερμοκρασία: 20°C
Σημ. Δρόσου: 13°C
Υγρασία: 64%
Βαρόμετρο: 1005 hPa
Νέφωση: Μερικώς νεφελώδης
Ορατότητα: 10 km
Λεπτομέρειες Νεφών: Διάσπαρτα Nέφη 610 m
Μερικώς νεφελώδης 914 m
2024/04/18 14:20 LGSK 181420Z 36008KT 9999 FEW020 SCT030 20/13 Q1005
LGLM - Limnos Island-Elev 5m
Distance from station: ΑΝΑ 210km
Ενημερώθηκε: 18/04/2024 17:20
Διάσπαρτα Nέφη
Διάσπαρτα Nέφη
 Ανεμος από ΝΔ
Ανεμος: ΝΔ 11 km/h
Θερμοκρασία: 21°C
Σημ. Δρόσου: 6°C
Υγρασία: 38%
Βαρόμετρο: 1005 hPa
Νέφωση: Διάσπαρτα Nέφη
Ορατότητα: 10 km
Λεπτομέρειες Νεφών: Διάσπαρτα Nέφη 762 m
2024/04/18 14:20 LGLM 181420Z 22006KT 9999 FEW025 21/06 Q1005
 
LGMT - Mitilini Island-Elev 17m
Distance from station: ΑΝΑ 358km
Ενημερώθηκε: 18/04/2024 17:20
Διάσπαρτα Nέφη
Διάσπαρτα Nέφη
 Ανεμος από ΔΝΔ
Ανεμος: ΔΝΔ 11 km/h
Θερμοκρασία: 22°C
Σημ. Δρόσου: 8°C
Υγρασία: 41%
Βαρόμετρο: 1006 hPa
Νέφωση: Διάσπαρτα Nέφη
Ορατότητα: 10 km
Λεπτομέρειες Νεφών: Διάσπαρτα Nέφη 762 m
2024/04/18 14:20 LGMT 181420Z 25006KT 9999 FEW025 22/08 Q1006
LGSY - Skiros Island-Elev 15m
Distance from station: ΝΑ 227km
Ενημερώθηκε: 18/04/2024 16:50
Διάσπαρτα Nέφη
Διάσπαρτα Nέφη
 Ανεμος από ΑΒΑ
Ανεμος: ΑΒΑ 13 km/h
Θερμοκρασία: 20°C
Σημ. Δρόσου: 11°C
Υγρασία: 56%
Βαρόμετρο: 1005 hPa
Νέφωση: Διάσπαρτα Nέφη
Ορατότητα: 10 km
Λεπτομέρειες Νεφών: Διάσπαρτα Nέφη 914 m
2024/04/18 13:50 LGSY 181350Z 06007KT 9999 FEW030 20/11 Q1005 BLU
 
LGKZ - Kozani-Elev 628m
Distance from station: ΔΝΔ 102km
Ενημερώθηκε: 18/04/2024 17:20

 Ανεμος από ΒΑ
Ανεμος: ΒΑ 17 km/h
Θερμοκρασία: 14°C
Σημ. Δρόσου: 2°C
Υγρασία: 44%
Βαρόμετρο: 1007 hPa
2024/04/18 14:20 LGKZ 181420Z AUTO 04009KT //// // ////// 14/02 Q1007 RE//
LGIO - Ioannina-Elev 476m
Distance from station: ΔΝΔ 209km
Ενημερώθηκε: 18/04/2024 17:20

 Ανεμος από Δ
Ανεμος: Δ 7 km/h
Θερμοκρασία: 14°C
Σημ. Δρόσου: 3°C
Υγρασία: 48%
Βαρόμετρο: 1008 hPa
2024/04/18 14:20 LGIO 181420Z AUTO 28004KT 190V340 //// // ////// 14/03 Q1008 RE//
 
LGZA - Zakinthos-Elev 3m
Distance from station: ΝΝΔ 367km
Ενημερώθηκε: 18/04/2024 17:20
Μερικώς νεφελώδης
Μερικώς νεφελώδης
 Ανεμος από ΝΔ
Ανεμος: ΝΔ 13 km/h
Θερμοκρασία: 19°C
Σημ. Δρόσου: 9°C
Υγρασία: 52%
Βαρόμετρο: 1010 hPa
Νέφωση: Μερικώς νεφελώδης
Ορατότητα: 10 km
Λεπτομέρειες Νεφών: Διάσπαρτα Nέφη 549 m
Μερικώς νεφελώδης 762 m
2024/04/18 14:20 LGZA 181420Z 23007KT 9999 FEW018 SCT025 19/09 Q1010
LGKR - Corfu Island-Elev 2m
Distance from station: ΔΝΔ 282km
Ενημερώθηκε: 18/04/2024 17:20
Κυρίως νεφελώδης
Κυρίως νεφελώδης
 Ανεμος από ΝΔ
Ανεμος: ΝΔ 11 km/h
Θερμοκρασία: 17°C
Σημ. Δρόσου: 12°C
Υγρασία: 73%
Βαρόμετρο: 1008 hPa
Νέφωση: Κυρίως νεφελώδης
Ορατότητα: 10 km
Λεπτομέρειες Νεφών: Μερικώς νεφελώδης 610 m
Κυρίως νεφελώδης 2438 m
2024/04/18 14:20 LGKR 181420Z 22006KT 9999 SCT020 BKN080 17/12 Q1008 NOSIG
 
LGSO - Syros Island-Elev 72m
Distance from station: ΝΝΑ 397km
Ενημερώθηκε: 18/04/2024 16:50
Διάσπαρτα Nέφη
Διάσπαρτα Nέφη
 Ανεμος από ΔΝΔ
Ανεμος: ΔΝΔ 30 km/h
Θερμοκρασία: 22°C
Σημ. Δρόσου: 9°C
Υγρασία: 44%
Βαρόμετρο: 1007 hPa
Νέφωση: Διάσπαρτα Nέφη
Ορατότητα: 10 km
Λεπτομέρειες Νεφών: Διάσπαρτα Nέφη 549 m
2024/04/18 13:50 LGSO 181350Z 24016KT 9999 FEW018 22/09 Q1007
LGMK - Mikonos Island-Elev 123m
Distance from station: ΝΝΑ 412km
Ενημερώθηκε: 18/04/2024 17:20
Αίθριος
Αίθριος
 Ανεμος από ΝΔ
Ανεμος: ΝΔ 28 km/h
Θερμοκρασία: 21°C
Σημ. Δρόσου: 8°C
Υγρασία: 43%
Βαρόμετρο: 1007 hPa
Συνθήκες: Αίθριος
Ορατότητα: πάνω από 10 km
2024/04/18 14:20 LGMK 181420Z 23015KT CAVOK 21/08 Q1007
 
LGSR - Santorini Island-Elev 40m
Distance from station: ΝΝΑ 520km
Ενημερώθηκε: 18/04/2024 17:20
Διάσπαρτα Nέφη
Διάσπαρτα Nέφη
 Ανεμος από ΔΝΔ
Ανεμος: ΔΝΔ 37 km/h
Θερμοκρασία: 21°C
Σημ. Δρόσου: 10°C
Υγρασία: 50%
Βαρόμετρο: 1008 hPa
Νέφωση: Διάσπαρτα Nέφη
Ορατότητα: 10 km
Λεπτομέρειες Νεφών: Διάσπαρτα Nέφη 610 m
2024/04/18 14:20 LGSR 181420Z 24020KT 9999 FEW020 21/10 Q1008
LGKL - Kalamata-Elev 8m
Distance from station: Ν 405km
Ενημερώθηκε: 18/04/2024 17:20
Μερικώς νεφελώδης
Μερικώς νεφελώδης
 Ανεμος από Δ
Ανεμος: Δ 15 km/h
Θερμοκρασία: 22°C
Σημ. Δρόσου: 7°C
Υγρασία: 38%
Βαρόμετρο: 1009 hPa
Νέφωση: Μερικώς νεφελώδης
Ορατότητα: 10 km
Λεπτομέρειες Νεφών: Μερικώς νεφελώδης 1067 m
2024/04/18 14:20 LGKL 181420Z 27008KT 9999 SCT035 22/07 Q1009
 
LGIR - Iraklion/Crete-Elev 5m
Distance from station: ΝΝΑ 622km
Ενημερώθηκε: 18/04/2024 17:20
Μερικώς νεφελώδης
Μερικώς νεφελώδης
 Ανεμος από ΔΒΔ
Ανεμος: ΔΒΔ 26 km/h
Θερμοκρασία: 21°C
Σημ. Δρόσου: 14°C
Υγρασία: 64%
Βαρόμετρο: 1010 hPa
Νέφωση: Μερικώς νεφελώδης
Ορατότητα: 10 km
Λεπτομέρειες Νεφών: Μερικώς νεφελώδης 762 m
2024/04/18 14:20 LGIR 181420Z 30014KT 9999 SCT025 21/14 Q1010 NOSIG
LGRP - Rhodes-Elev 5m
Distance from station: ΝΑ 649km
Ενημερώθηκε: 18/04/2024 17:20
Διάσπαρτα Nέφη
Διάσπαρτα Nέφη
 Ανεμος από ΔΝΔ
Ανεμος: ΔΝΔ 28 km/h
Θερμοκρασία: 21°C
Σημ. Δρόσου: 15°C
Υγρασία: 69%
Βαρόμετρο: 1009 hPa
Νέφωση: Διάσπαρτα Nέφη
Ορατότητα: 10 km
Λεπτομέρειες Νεφών: Διάσπαρτα Nέφη 549 m
2024/04/18 14:20 LGRP 181420Z 24015KT 9999 FEW018 21/15 Q1009 NOSIG
 
LWOH - Ohrid/FYROM-Elev 761m
Distance from station: ΔΒΔ 188km
Ενημερώθηκε: 18/04/2024 17:20
Κυρίως νεφελώδης
Κυρίως νεφελώδης
 Ανεμος από ΝΑ
Ανεμος: ΝΑ 6 km/h
Θερμοκρασία: 10°C
Σημ. Δρόσου: 3°C
Υγρασία: 62%
Βαρόμετρο: 1008 hPa
Νέφωση: Κυρίως νεφελώδης
Ορατότητα: 10 km
Λεπτομέρειες Νεφών: Διάσπαρτα Nέφη 610 m
Κυρίως νεφελώδης 1372 m
2024/04/18 14:20 LWOH 181420Z 14003KT 040V190 9999 FEW020 BKN045 10/03 Q1008
LBSF - Sofia/Bulgaria-Elev 595m
Distance from station: Β 227km
Ενημερώθηκε: 18/04/2024 17:30
Διάσπαρτα Nέφη
Διάσπαρτα Nέφη
 Ανεμος από ΔΒΔ
Ανεμος: ΔΒΔ 20 km/h
Θερμοκρασία: 11°C
Σημ. Δρόσου: 1°C
Υγρασία: 50%
Βαρόμετρο: 1007 hPa
Νέφωση: Διάσπαρτα Nέφη
Ορατότητα: 10 km
Λεπτομέρειες Νεφών: Διάσπαρτα Nέφη 1524 m
2024/04/18 14:30 LBSF 181430Z 29011KT 270V330 9999 FEW050 11/01 Q1007 NOSIG

(*) Μερικές αναφορές παρουσιάζουν λιγότερα στοιχεία γιατί οι αρχικές είναι ελλιπείς ή έχουν λάθος μορφοποίηση!